sensor_id;sensor_type;location;lat;lon;timestamp;temperature;humidity
20442;DHT22;10380;52.102;20.614;2023-03-01T00:01:15;-2.70;99.90
20442;DHT22;10380;52.102;20.614;2023-03-01T00:03:43;-2.70;99.90
20442;DHT22;10380;52.102;20.614;2023-03-01T00:06:10;-2.70;99.90
20442;DHT22;10380;52.102;20.614;2023-03-01T00:08:37;-2.70;99.90
20442;DHT22;10380;52.102;20.614;2023-03-01T00:11:07;-2.70;99.90
20442;DHT22;10380;52.102;20.614;2023-03-01T00:13:36;-2.70;99.90
20442;DHT22;10380;52.102;20.614;2023-03-01T00:16:09;-2.70;99.90
20442;DHT22;10380;52.102;20.614;2023-03-01T00:18:36;-2.70;99.90
20442;DHT22;10380;52.102;20.614;2023-03-01T00:21:04;-2.70;99.90
20442;DHT22;10380;52.102;20.614;2023-03-01T00:23:31;-2.70;99.90
20442;DHT22;10380;52.102;20.614;2023-03-01T00:25:59;-2.80;99.90
20442;DHT22;10380;52.102;20.614;2023-03-01T00:28:27;-2.80;99.90
20442;DHT22;10380;52.102;20.614;2023-03-01T00:30:54;-2.80;99.90
20442;DHT22;10380;52.102;20.614;2023-03-01T00:33:21;-2.80;99.90
20442;DHT22;10380;52.102;20.614;2023-03-01T00:35:48;-2.80;99.90
20442;DHT22;10380;52.102;20.614;2023-03-01T00:38:15;-2.80;99.90
20442;DHT22;10380;52.102;20.614;2023-03-01T00:40:42;-2.80;99.90
20442;DHT22;10380;52.102;20.614;2023-03-01T00:43:09;-2.80;99.90
20442;DHT22;10380;52.102;20.614;2023-03-01T00:45:36;-2.80;99.90
20442;DHT22;10380;52.102;20.614;2023-03-01T00:48:05;-2.70;99.90
20442;DHT22;10380;52.102;20.614;2023-03-01T00:50:32;-2.70;99.90
20442;DHT22;10380;52.102;20.614;2023-03-01T00:53:01;-2.70;99.90
20442;DHT22;10380;52.102;20.614;2023-03-01T00:55:28;-2.70;99.90
20442;DHT22;10380;52.102;20.614;2023-03-01T00:57:55;-2.80;99.90
20442;DHT22;10380;52.102;20.614;2023-03-01T01:00:22;-2.80;99.90
20442;DHT22;10380;52.102;20.614;2023-03-01T01:02:49;-2.80;99.90
20442;DHT22;10380;52.102;20.614;2023-03-01T01:05:16;-2.80;99.90
20442;DHT22;10380;52.102;20.614;2023-03-01T01:07:48;-2.80;99.90
20442;DHT22;10380;52.102;20.614;2023-03-01T01:10:15;-2.80;99.90
20442;DHT22;10380;52.102;20.614;2023-03-01T01:12:44;-2.80;99.90
20442;DHT22;10380;52.102;20.614;2023-03-01T01:15:12;-2.80;99.90
20442;DHT22;10380;52.102;20.614;2023-03-01T01:17:41;-2.80;99.90
20442;DHT22;10380;52.102;20.614;2023-03-01T01:20:08;-2.80;99.90
20442;DHT22;10380;52.102;20.614;2023-03-01T01:22:36;-2.80;99.90
20442;DHT22;10380;52.102;20.614;2023-03-01T01:25:03;-2.70;99.90
20442;DHT22;10380;52.102;20.614;2023-03-01T01:27:30;-2.70;99.90
20442;DHT22;10380;52.102;20.614;2023-03-01T01:29:57;-2.70;99.90
20442;DHT22;10380;52.102;20.614;2023-03-01T01:32:24;-2.70;99.90
20442;DHT22;10380;52.102;20.614;2023-03-01T01:34:52;-2.70;99.90
20442;DHT22;10380;52.102;20.614;2023-03-01T01:37:19;-2.70;99.90
20442;DHT22;10380;52.102;20.614;2023-03-01T01:39:46;-2.70;99.90
20442;DHT22;10380;52.102;20.614;2023-03-01T01:42:18;-2.80;99.90
20442;DHT22;10380;52.102;20.614;2023-03-01T01:44:46;-2.70;99.90
20442;DHT22;10380;52.102;20.614;2023-03-01T01:47:18;-2.70;99.90
20442;DHT22;10380;52.102;20.614;2023-03-01T01:49:49;-2.70;99.90
20442;DHT22;10380;52.102;20.614;2023-03-01T01:52:34;-2.80;99.90
20442;DHT22;10380;52.102;20.614;2023-03-01T01:55:17;-2.80;99.90
20442;DHT22;10380;52.102;20.614;2023-03-01T01:57:53;-2.80;99.90
20442;DHT22;10380;52.102;20.614;2023-03-01T02:00:23;-2.80;99.90
20442;DHT22;10380;52.102;20.614;2023-03-01T02:02:57;-2.80;99.90
20442;DHT22;10380;52.102;20.614;2023-03-01T02:13:25;-2.80;99.90
20442;DHT22;10380;52.102;20.614;2023-03-01T02:15:53;-2.80;99.90
20442;DHT22;10380;52.102;20.614;2023-03-01T02:18:21;-2.80;99.90
20442;DHT22;10380;52.102;20.614;2023-03-01T02:23:37;-2.80;99.90
20442;DHT22;10380;52.102;20.614;2023-03-01T02:26:19;-2.70;99.90
20442;DHT22;10380;52.102;20.614;2023-03-01T02:28:47;-2.70;99.90
20442;DHT22;10380;52.102;20.614;2023-03-01T02:31:17;-2.70;99.90
20442;DHT22;10380;52.102;20.614;2023-03-01T02:34:04;-2.70;99.90
20442;DHT22;10380;52.102;20.614;2023-03-01T02:36:39;-2.70;99.90
20442;DHT22;10380;52.102;20.614;2023-03-01T02:39:09;-2.70;99.90
20442;DHT22;10380;52.102;20.614;2023-03-01T02:41:43;-2.70;99.90
20442;DHT22;10380;52.102;20.614;2023-03-01T02:44:10;-2.70;99.90
20442;DHT22;10380;52.102;20.614;2023-03-01T02:46:49;-2.70;99.90
20442;DHT22;10380;52.102;20.614;2023-03-01T02:49:31;-2.70;99.90
20442;DHT22;10380;52.102;20.614;2023-03-01T02:52:29;-2.80;99.90
20442;DHT22;10380;52.102;20.614;2023-03-01T02:55:13;-2.70;99.90
20442;DHT22;10380;52.102;20.614;2023-03-01T02:57:43;-2.80;99.90
20442;DHT22;10380;52.102;20.614;2023-03-01T03:00:18;-2.80;99.90
20442;DHT22;10380;52.102;20.614;2023-03-01T03:02:53;-2.80;99.90
20442;DHT22;10380;52.102;20.614;2023-03-01T03:05:23;-2.80;99.90
20442;DHT22;10380;52.102;20.614;2023-03-01T03:07:51;-2.80;99.90
20442;DHT22;10380;52.102;20.614;2023-03-01T03:10:24;-2.80;99.90
20442;DHT22;10380;52.102;20.614;2023-03-01T03:13:15;-2.80;99.90
20442;DHT22;10380;52.102;20.614;2023-03-01T03:15:43;-2.90;99.90
20442;DHT22;10380;52.102;20.614;2023-03-01T03:18:12;-2.80;99.90
20442;DHT22;10380;52.102;20.614;2023-03-01T03:20:40;-2.80;99.90
20442;DHT22;10380;52.102;20.614;2023-03-01T03:23:08;-2.80;99.90
20442;DHT22;10380;52.102;20.614;2023-03-01T03:25:35;-2.80;99.90
20442;DHT22;10380;52.102;20.614;2023-03-01T03:28:06;-2.90;99.90
20442;DHT22;10380;52.102;20.614;2023-03-01T03:30:39;-2.80;99.90
20442;DHT22;10380;52.102;20.614;2023-03-01T03:33:06;-2.80;99.90
20442;DHT22;10380;52.102;20.614;2023-03-01T03:35:39;-2.80;99.90
20442;DHT22;10380;52.102;20.614;2023-03-01T03:38:08;-2.80;99.90
20442;DHT22;10380;52.102;20.614;2023-03-01T03:40:47;-2.80;99.90
20442;DHT22;10380;52.102;20.614;2023-03-01T03:43:20;-2.80;99.90
20442;DHT22;10380;52.102;20.614;2023-03-01T03:45:48;-2.80;99.90
20442;DHT22;10380;52.102;20.614;2023-03-01T03:48:17;-2.80;99.90
20442;DHT22;10380;52.102;20.614;2023-03-01T03:50:51;-2.80;99.90
20442;DHT22;10380;52.102;20.614;2023-03-01T03:53:20;-2.80;99.90
20442;DHT22;10380;52.102;20.614;2023-03-01T03:55:47;-2.80;99.90
20442;DHT22;10380;52.102;20.614;2023-03-01T03:58:20;-2.80;99.90
20442;DHT22;10380;52.102;20.614;2023-03-01T04:00:50;-2.70;99.90
20442;DHT22;10380;52.102;20.614;2023-03-01T04:03:18;-2.70;99.90
20442;DHT22;10380;52.102;20.614;2023-03-01T04:05:46;-2.70;99.90
20442;DHT22;10380;52.102;20.614;2023-03-01T04:08:14;-2.70;99.90
20442;DHT22;10380;52.102;20.614;2023-03-01T04:10:46;-2.70;99.90
20442;DHT22;10380;52.102;20.614;2023-03-01T04:13:18;-2.60;99.90
20442;DHT22;10380;52.102;20.614;2023-03-01T04:15:50;-2.60;99.90
20442;DHT22;10380;52.102;20.614;2023-03-01T04:18:19;-2.50;99.90
20442;DHT22;10380;52.102;20.614;2023-03-01T04:20:47;-2.50;99.90
20442;DHT22;10380;52.102;20.614;2023-03-01T04:23:19;-2.40;99.90
20442;DHT22;10380;52.102;20.614;2023-03-01T04:25:55;-2.40;99.90
20442;DHT22;10380;52.102;20.614;2023-03-01T04:28:37;-2.40;99.90
20442;DHT22;10380;52.102;20.614;2023-03-01T04:31:16;-2.30;99.90
20442;DHT22;10380;52.102;20.614;2023-03-01T04:33:46;-2.30;99.90
20442;DHT22;10380;52.102;20.614;2023-03-01T04:36:15;-2.30;99.90
20442;DHT22;10380;52.102;20.614;2023-03-01T04:38:42;-2.30;99.90
20442;DHT22;10380;52.102;20.614;2023-03-01T04:41:16;-2.20;99.90
20442;DHT22;10380;52.102;20.614;2023-03-01T04:43:44;-2.20;99.90
20442;DHT22;10380;52.102;20.614;2023-03-01T04:46:13;-2.20;99.90
20442;DHT22;10380;52.102;20.614;2023-03-01T04:48:43;-2.10;99.90
20442;DHT22;10380;52.102;20.614;2023-03-01T04:51:11;-2.10;99.90
20442;DHT22;10380;52.102;20.614;2023-03-01T04:53:43;-2.10;99.90
20442;DHT22;10380;52.102;20.614;2023-03-01T04:56:11;-2.10;99.90
20442;DHT22;10380;52.102;20.614;2023-03-01T04:58:41;-2.00;99.90
20442;DHT22;10380;52.102;20.614;2023-03-01T05:01:19;-2.10;99.90
20442;DHT22;10380;52.102;20.614;2023-03-01T05:03:48;-2.10;99.90
20442;DHT22;10380;52.102;20.614;2023-03-01T05:06:16;-2.00;99.90
20442;DHT22;10380;52.102;20.614;2023-03-01T05:08:44;-2.00;99.90
20442;DHT22;10380;52.102;20.614;2023-03-01T05:11:11;-2.10;99.90
20442;DHT22;10380;52.102;20.614;2023-03-01T05:13:39;-2.10;99.90
20442;DHT22;10380;52.102;20.614;2023-03-01T05:16:07;-2.10;99.90
20442;DHT22;10380;52.102;20.614;2023-03-01T05:18:40;-2.10;99.90
20442;DHT22;10380;52.102;20.614;2023-03-01T05:21:09;-2.00;99.90
20442;DHT22;10380;52.102;20.614;2023-03-01T05:23:37;-2.00;99.90
20442;DHT22;10380;52.102;20.614;2023-03-01T05:26:05;-2.10;99.90
20442;DHT22;10380;52.102;20.614;2023-03-01T05:28:37;-2.00;99.90
20442;DHT22;10380;52.102;20.614;2023-03-01T05:31:04;-2.00;99.90
20442;DHT22;10380;52.102;20.614;2023-03-01T05:33:37;-2.00;99.90
20442;DHT22;10380;52.102;20.614;2023-03-01T05:36:06;-2.00;99.90
20442;DHT22;10380;52.102;20.614;2023-03-01T05:38:34;-2.00;99.90
20442;DHT22;10380;52.102;20.614;2023-03-01T05:41:01;-2.00;99.90
20442;DHT22;10380;52.102;20.614;2023-03-01T05:43:31;-2.00;99.90
20442;DHT22;10380;52.102;20.614;2023-03-01T05:46:00;-1.90;99.90
20442;DHT22;10380;52.102;20.614;2023-03-01T05:48:27;-1.90;99.90
20442;DHT22;10380;52.102;20.614;2023-03-01T05:50:54;-1.90;99.90
20442;DHT22;10380;52.102;20.614;2023-03-01T05:53:21;-1.90;99.90
20442;DHT22;10380;52.102;20.614;2023-03-01T05:55:48;-1.90;99.90
20442;DHT22;10380;52.102;20.614;2023-03-01T05:58:18;-1.80;99.90
20442;DHT22;10380;52.102;20.614;2023-03-01T06:00:47;-1.80;99.90
20442;DHT22;10380;52.102;20.614;2023-03-01T06:03:16;-1.80;99.90
20442;DHT22;10380;52.102;20.614;2023-03-01T06:05:44;-1.80;99.90
20442;DHT22;10380;52.102;20.614;2023-03-01T06:08:12;-1.70;99.90
20442;DHT22;10380;52.102;20.614;2023-03-01T06:10:39;-1.70;99.90
20442;DHT22;10380;52.102;20.614;2023-03-01T06:13:08;-1.70;99.90
20442;DHT22;10380;52.102;20.614;2023-03-01T06:15:35;-1.70;99.90
20442;DHT22;10380;52.102;20.614;2023-03-01T06:18:02;-1.60;99.90
20442;DHT22;10380;52.102;20.614;2023-03-01T06:20:29;-1.60;99.90
20442;DHT22;10380;52.102;20.614;2023-03-01T06:22:56;-1.60;99.90
20442;DHT22;10380;52.102;20.614;2023-03-01T06:25:25;-1.50;99.90
20442;DHT22;10380;52.102;20.614;2023-03-01T06:27:54;-1.50;99.90
20442;DHT22;10380;52.102;20.614;2023-03-01T06:30:23;-1.50;99.90
20442;DHT22;10380;52.102;20.614;2023-03-01T06:32:51;-1.40;99.90
20442;DHT22;10380;52.102;20.614;2023-03-01T06:35:20;-1.40;99.90
20442;DHT22;10380;52.102;20.614;2023-03-01T06:37:47;-1.30;99.90
20442;DHT22;10380;52.102;20.614;2023-03-01T06:40:21;-1.20;99.90
20442;DHT22;10380;52.102;20.614;2023-03-01T06:42:49;-1.20;99.90
20442;DHT22;10380;52.102;20.614;2023-03-01T06:45:20;-1.20;99.90
20442;DHT22;10380;52.102;20.614;2023-03-01T06:47:48;-1.10;99.90
20442;DHT22;10380;52.102;20.614;2023-03-01T06:50:17;-1.10;99.90
20442;DHT22;10380;52.102;20.614;2023-03-01T06:52:44;-1.00;99.90
20442;DHT22;10380;52.102;20.614;2023-03-01T06:55:14;-1.00;99.90
20442;DHT22;10380;52.102;20.614;2023-03-01T06:57:41;-0.90;99.90
20442;DHT22;10380;52.102;20.614;2023-03-01T07:00:09;-0.80;99.90
20442;DHT22;10380;52.102;20.614;2023-03-01T07:02:36;-0.80;99.90
20442;DHT22;10380;52.102;20.614;2023-03-01T07:05:03;-0.70;99.90
20442;DHT22;10380;52.102;20.614;2023-03-01T07:07:30;-0.70;99.90
20442;DHT22;10380;52.102;20.614;2023-03-01T07:09:57;-0.60;99.90
20442;DHT22;10380;52.102;20.614;2023-03-01T07:12:24;-0.50;99.90
20442;DHT22;10380;52.102;20.614;2023-03-01T07:14:51;-0.40;99.90
20442;DHT22;10380;52.102;20.614;2023-03-01T07:17:18;-0.40;99.90
20442;DHT22;10380;52.102;20.614;2023-03-01T07:19:45;-0.30;99.90
20442;DHT22;10380;52.102;20.614;2023-03-01T07:22:12;-0.30;99.90
20442;DHT22;10380;52.102;20.614;2023-03-01T07:24:39;-0.20;99.90
20442;DHT22;10380;52.102;20.614;2023-03-01T07:27:07;-0.20;99.90
20442;DHT22;10380;52.102;20.614;2023-03-01T07:29:33;-0.10;99.90
20442;DHT22;10380;52.102;20.614;2023-03-01T07:32:03;-0.10;99.90
20442;DHT22;10380;52.102;20.614;2023-03-01T07:34:31;0.00;99.90
20442;DHT22;10380;52.102;20.614;2023-03-01T07:36:58;0.00;99.90
20442;DHT22;10380;52.102;20.614;2023-03-01T07:39:25;0.10;99.90
20442;DHT22;10380;52.102;20.614;2023-03-01T07:41:52;0.20;99.90
20442;DHT22;10380;52.102;20.614;2023-03-01T07:44:19;0.20;99.90
20442;DHT22;10380;52.102;20.614;2023-03-01T07:46:46;0.40;99.90
20442;DHT22;10380;52.102;20.614;2023-03-01T07:49:13;0.40;99.90
20442;DHT22;10380;52.102;20.614;2023-03-01T07:51:41;0.50;99.90
20442;DHT22;10380;52.102;20.614;2023-03-01T07:54:09;0.60;99.90
20442;DHT22;10380;52.102;20.614;2023-03-01T07:56:36;0.70;99.90
20442;DHT22;10380;52.102;20.614;2023-03-01T07:59:02;0.80;99.90
20442;DHT22;10380;52.102;20.614;2023-03-01T08:01:29;0.90;99.90
20442;DHT22;10380;52.102;20.614;2023-03-01T08:03:56;1.00;99.90
20442;DHT22;10380;52.102;20.614;2023-03-01T08:06:23;1.10;99.90
20442;DHT22;10380;52.102;20.614;2023-03-01T08:08:50;1.10;99.90
20442;DHT22;10380;52.102;20.614;2023-03-01T08:11:17;1.30;99.90
20442;DHT22;10380;52.102;20.614;2023-03-01T08:13:43;1.30;99.90
20442;DHT22;10380;52.102;20.614;2023-03-01T08:16:13;1.30;99.90
20442;DHT22;10380;52.102;20.614;2023-03-01T08:18:42;1.40;99.90
20442;DHT22;10380;52.102;20.614;2023-03-01T08:21:11;1.50;99.90
20442;DHT22;10380;52.102;20.614;2023-03-01T08:23:39;1.60;99.90
20442;DHT22;10380;52.102;20.614;2023-03-01T08:26:08;1.60;99.90
20442;DHT22;10380;52.102;20.614;2023-03-01T08:28:36;1.60;99.90
20442;DHT22;10380;52.102;20.614;2023-03-01T08:31:03;1.70;99.90
20442;DHT22;10380;52.102;20.614;2023-03-01T08:33:30;1.80;99.90
20442;DHT22;10380;52.102;20.614;2023-03-01T08:36:05;1.80;99.90
20442;DHT22;10380;52.102;20.614;2023-03-01T08:38:34;1.90;99.90
20442;DHT22;10380;52.102;20.614;2023-03-01T08:41:02;2.00;99.90
20442;DHT22;10380;52.102;20.614;2023-03-01T08:43:29;2.00;99.90
20442;DHT22;10380;52.102;20.614;2023-03-01T08:45:56;2.10;99.90
20442;DHT22;10380;52.102;20.614;2023-03-01T08:48:23;2.20;99.90
20442;DHT22;10380;52.102;20.614;2023-03-01T08:50:50;2.30;99.90
20442;DHT22;10380;52.102;20.614;2023-03-01T08:53:17;2.30;99.90
20442;DHT22;10380;52.102;20.614;2023-03-01T08:55:44;2.50;99.90
20442;DHT22;10380;52.102;20.614;2023-03-01T08:58:10;2.50;99.90
20442;DHT22;10380;52.102;20.614;2023-03-01T09:00:37;2.60;99.90
20442;DHT22;10380;52.102;20.614;2023-03-01T09:03:04;2.80;99.90
20442;DHT22;10380;52.102;20.614;2023-03-01T09:05:33;2.90;99.90
20442;DHT22;10380;52.102;20.614;2023-03-01T09:08:00;2.90;99.90
20442;DHT22;10380;52.102;20.614;2023-03-01T09:10:27;2.90;99.90
20442;DHT22;10380;52.102;20.614;2023-03-01T09:12:54;2.90;99.90
20442;DHT22;10380;52.102;20.614;2023-03-01T09:15:21;2.90;99.90
20442;DHT22;10380;52.102;20.614;2023-03-01T09:17:48;2.90;99.90
20442;DHT22;10380;52.102;20.614;2023-03-01T09:20:15;3.00;99.90
20442;DHT22;10380;52.102;20.614;2023-03-01T09:22:42;3.10;99.90
20442;DHT22;10380;52.102;20.614;2023-03-01T09:25:10;3.20;99.90
20442;DHT22;10380;52.102;20.614;2023-03-01T09:27:37;3.40;99.90
20442;DHT22;10380;52.102;20.614;2023-03-01T09:30:04;3.50;99.90
20442;DHT22;10380;52.102;20.614;2023-03-01T09:32:31;3.50;99.90
20442;DHT22;10380;52.102;20.614;2023-03-01T09:34:58;3.50;99.90
20442;DHT22;10380;52.102;20.614;2023-03-01T09:37:32;3.50;99.90
20442;DHT22;10380;52.102;20.614;2023-03-01T09:39:59;3.60;99.90
20442;DHT22;10380;52.102;20.614;2023-03-01T09:42:28;3.60;99.90
20442;DHT22;10380;52.102;20.614;2023-03-01T09:45:05;3.70;99.90
20442;DHT22;10380;52.102;20.614;2023-03-01T09:47:34;3.80;99.90
20442;DHT22;10380;52.102;20.614;2023-03-01T09:50:14;3.80;99.90
20442;DHT22;10380;52.102;20.614;2023-03-01T09:53:02;3.90;99.90
20442;DHT22;10380;52.102;20.614;2023-03-01T09:58:25;4.00;99.90
20442;DHT22;10380;52.102;20.614;2023-03-01T10:00:57;4.00;99.90
20442;DHT22;10380;52.102;20.614;2023-03-01T10:03:39;4.10;99.90
20442;DHT22;10380;52.102;20.614;2023-03-01T10:06:13;4.10;99.90
20442;DHT22;10380;52.102;20.614;2023-03-01T10:09:13;4.10;99.90
20442;DHT22;10380;52.102;20.614;2023-03-01T10:11:47;4.20;99.90
20442;DHT22;10380;52.102;20.614;2023-03-01T10:15:13;4.20;99.90
20442;DHT22;10380;52.102;20.614;2023-03-01T10:17:24;4.20;99.90
20442;DHT22;10380;52.102;20.614;2023-03-01T10:19:52;4.10;99.90
20442;DHT22;10380;52.102;20.614;2023-03-01T10:22:29;4.10;99.90
20442;DHT22;10380;52.102;20.614;2023-03-01T10:24:59;4.20;99.90
20442;DHT22;10380;52.102;20.614;2023-03-01T10:27:47;4.20;99.90
20442;DHT22;10380;52.102;20.614;2023-03-01T10:30:32;4.30;99.90
20442;DHT22;10380;52.102;20.614;2023-03-01T10:33:01;4.40;99.90
20442;DHT22;10380;52.102;20.614;2023-03-01T10:35:33;4.40;99.90
20442;DHT22;10380;52.102;20.614;2023-03-01T10:38:04;4.40;99.90
20442;DHT22;10380;52.102;20.614;2023-03-01T10:40:34;4.40;99.90
20442;DHT22;10380;52.102;20.614;2023-03-01T10:43:03;4.40;99.90
20442;DHT22;10380;52.102;20.614;2023-03-01T10:48:21;4.50;99.90
20442;DHT22;10380;52.102;20.614;2023-03-01T10:51:05;4.60;99.90
20442;DHT22;10380;52.102;20.614;2023-03-01T10:53:37;4.60;99.90
20442;DHT22;10380;52.102;20.614;2023-03-01T10:56:11;4.60;99.90
20442;DHT22;10380;52.102;20.614;2023-03-01T10:58:58;4.60;99.90
20442;DHT22;10380;52.102;20.614;2023-03-01T11:01:29;4.60;99.90
20442;DHT22;10380;52.102;20.614;2023-03-01T11:06:38;4.60;99.90
20442;DHT22;10380;52.102;20.614;2023-03-01T11:09:23;4.60;99.90
20442;DHT22;10380;52.102;20.614;2023-03-01T11:11:58;4.60;99.90
20442;DHT22;10380;52.102;20.614;2023-03-01T11:14:53;4.60;99.90
20442;DHT22;10380;52.102;20.614;2023-03-01T11:17:30;4.60;99.90
20442;DHT22;10380;52.102;20.614;2023-03-01T11:22:54;4.80;99.90
20442;DHT22;10380;52.102;20.614;2023-03-01T11:25:30;4.80;99.90
20442;DHT22;10380;52.102;20.614;2023-03-01T11:27:59;4.80;99.90
20442;DHT22;10380;52.102;20.614;2023-03-01T11:32:58;4.90;99.90
20442;DHT22;10380;52.102;20.614;2023-03-01T11:35:28;5.00;99.90
20442;DHT22;10380;52.102;20.614;2023-03-01T11:40:33;5.30;99.90
20442;DHT22;10380;52.102;20.614;2023-03-01T11:43:23;5.30;99.90
20442;DHT22;10380;52.102;20.614;2023-03-01T11:46:24;5.40;99.90
20442;DHT22;10380;52.102;20.614;2023-03-01T12:00:17;6.00;99.90
20442;DHT22;10380;52.102;20.614;2023-03-01T12:09:00;6.90;99.90
20442;DHT22;10380;52.102;20.614;2023-03-01T12:11:53;7.20;99.90
20442;DHT22;10380;52.102;20.614;2023-03-01T12:22:30;8.30;99.90
20442;DHT22;10380;52.102;20.614;2023-03-01T12:36:10;8.80;99.90
20442;DHT22;10380;52.102;20.614;2023-03-01T12:38:42;9.20;99.90
20442;DHT22;10380;52.102;20.614;2023-03-01T12:41:27;9.50;99.90
20442;DHT22;10380;52.102;20.614;2023-03-01T12:44:27;9.60;99.90
20442;DHT22;10380;52.102;20.614;2023-03-01T12:47:22;9.50;99.90
20442;DHT22;10380;52.102;20.614;2023-03-01T12:49:57;9.50;99.90
20442;DHT22;10380;52.102;20.614;2023-03-01T12:55:16;9.70;99.90
20442;DHT22;10380;52.102;20.614;2023-03-01T13:00:55;9.60;99.90
20442;DHT22;10380;52.102;20.614;2023-03-01T13:06:25;9.50;99.90
20442;DHT22;10380;52.102;20.614;2023-03-01T13:09:18;9.60;99.90
20442;DHT22;10380;52.102;20.614;2023-03-01T13:11:45;9.90;99.90
20442;DHT22;10380;52.102;20.614;2023-03-01T13:16:50;10.10;99.90
20442;DHT22;10380;52.102;20.614;2023-03-01T13:19:28;9.90;99.90
20442;DHT22;10380;52.102;20.614;2023-03-01T13:22:26;9.70;99.90
20442;DHT22;10380;52.102;20.614;2023-03-01T13:25:10;9.70;99.90
20442;DHT22;10380;52.102;20.614;2023-03-01T13:27:38;9.50;99.90
20442;DHT22;10380;52.102;20.614;2023-03-01T13:30:46;9.50;99.90
20442;DHT22;10380;52.102;20.614;2023-03-01T13:33:39;9.60;99.90
20442;DHT22;10380;52.102;20.614;2023-03-01T13:36:08;9.40;99.90
20442;DHT22;10380;52.102;20.614;2023-03-01T13:38:45;9.20;99.90
20442;DHT22;10380;52.102;20.614;2023-03-01T13:41:14;9.10;99.90
20442;DHT22;10380;52.102;20.614;2023-03-01T13:43:44;9.00;99.90
20442;DHT22;10380;52.102;20.614;2023-03-01T13:46:18;9.00;99.90
20442;DHT22;10380;52.102;20.614;2023-03-01T13:48:50;9.10;99.90
20442;DHT22;10380;52.102;20.614;2023-03-01T13:51:27;9.10;99.90
20442;DHT22;10380;52.102;20.614;2023-03-01T13:53:56;9.40;99.90
20442;DHT22;10380;52.102;20.614;2023-03-01T13:56:27;9.70;99.90
20442;DHT22;10380;52.102;20.614;2023-03-01T13:59:01;9.90;99.90
20442;DHT22;10380;52.102;20.614;2023-03-01T14:01:34;10.20;99.90
20442;DHT22;10380;52.102;20.614;2023-03-01T14:04:03;10.40;99.90
20442;DHT22;10380;52.102;20.614;2023-03-01T14:06:44;10.60;99.90
20442;DHT22;10380;52.102;20.614;2023-03-01T14:09:23;10.80;99.90
20442;DHT22;10380;52.102;20.614;2023-03-01T14:15:17;10.50;99.90
20442;DHT22;10380;52.102;20.614;2023-03-01T14:17:55;10.10;99.90
20442;DHT22;10380;52.102;20.614;2023-03-01T14:20:31;9.90;99.90
20442;DHT22;10380;52.102;20.614;2023-03-01T14:23:02;9.70;99.90
20442;DHT22;10380;52.102;20.614;2023-03-01T14:25:36;9.60;99.90
20442;DHT22;10380;52.102;20.614;2023-03-01T14:28:28;9.60;99.90
20442;DHT22;10380;52.102;20.614;2023-03-01T14:31:00;9.70;99.90
20442;DHT22;10380;52.102;20.614;2023-03-01T14:33:32;9.60;99.90
20442;DHT22;10380;52.102;20.614;2023-03-01T14:36:03;9.40;99.90
20442;DHT22;10380;52.102;20.614;2023-03-01T14:38:46;9.30;99.90
20442;DHT22;10380;52.102;20.614;2023-03-01T14:41:19;9.20;99.90
20442;DHT22;10380;52.102;20.614;2023-03-01T14:43:51;9.00;99.90
20442;DHT22;10380;52.102;20.614;2023-03-01T14:46:38;8.80;99.90
20442;DHT22;10380;52.102;20.614;2023-03-01T14:49:14;8.60;99.90
20442;DHT22;10380;52.102;20.614;2023-03-01T14:51:46;8.40;99.90
20442;DHT22;10380;52.102;20.614;2023-03-01T14:54:26;8.30;99.90
20442;DHT22;10380;52.102;20.614;2023-03-01T14:56:58;8.10;99.90
20442;DHT22;10380;52.102;20.614;2023-03-01T14:59:26;8.00;99.90
20442;DHT22;10380;52.102;20.614;2023-03-01T15:01:56;7.90;99.90
20442;DHT22;10380;52.102;20.614;2023-03-01T15:04:25;7.80;99.90
20442;DHT22;10380;52.102;20.614;2023-03-01T15:06:57;7.70;99.90
20442;DHT22;10380;52.102;20.614;2023-03-01T15:09:34;7.50;99.90
20442;DHT22;10380;52.102;20.614;2023-03-01T15:14:54;7.30;99.90
20442;DHT22;10380;52.102;20.614;2023-03-01T15:17:35;7.20;99.90
20442;DHT22;10380;52.102;20.614;2023-03-01T15:20:14;7.20;99.90
20442;DHT22;10380;52.102;20.614;2023-03-01T15:22:46;7.10;99.90
20442;DHT22;10380;52.102;20.614;2023-03-01T15:25:18;7.00;99.90
20442;DHT22;10380;52.102;20.614;2023-03-01T15:27:47;7.00;99.90
20442;DHT22;10380;52.102;20.614;2023-03-01T15:30:31;7.00;99.90
20442;DHT22;10380;52.102;20.614;2023-03-01T15:35:55;6.90;99.90
20442;DHT22;10380;52.102;20.614;2023-03-01T15:38:35;6.80;99.90
20442;DHT22;10380;52.102;20.614;2023-03-01T15:43:49;6.70;99.90
20442;DHT22;10380;52.102;20.614;2023-03-01T15:46:23;6.70;99.90
20442;DHT22;10380;52.102;20.614;2023-03-01T15:48:56;6.60;99.90
20442;DHT22;10380;52.102;20.614;2023-03-01T15:51:32;6.50;99.90
20442;DHT22;10380;52.102;20.614;2023-03-01T15:54:03;6.40;99.90
20442;DHT22;10380;52.102;20.614;2023-03-01T15:56:30;6.30;99.90
20442;DHT22;10380;52.102;20.614;2023-03-01T15:58:59;6.20;99.90
20442;DHT22;10380;52.102;20.614;2023-03-01T16:01:26;6.10;99.90
20442;DHT22;10380;52.102;20.614;2023-03-01T16:03:53;6.00;99.90
20442;DHT22;10380;52.102;20.614;2023-03-01T16:06:20;5.90;99.90
20442;DHT22;10380;52.102;20.614;2023-03-01T16:08:47;5.80;99.90
20442;DHT22;10380;52.102;20.614;2023-03-01T16:11:18;5.70;99.90
20442;DHT22;10380;52.102;20.614;2023-03-01T16:13:46;5.60;99.90
20442;DHT22;10380;52.102;20.614;2023-03-01T16:16:14;5.50;99.90
20442;DHT22;10380;52.102;20.614;2023-03-01T16:18:45;5.40;99.90
20442;DHT22;10380;52.102;20.614;2023-03-01T16:21:23;5.30;99.90
20442;DHT22;10380;52.102;20.614;2023-03-01T16:23:51;5.20;99.90
20442;DHT22;10380;52.102;20.614;2023-03-01T16:26:19;5.10;99.90
20442;DHT22;10380;52.102;20.614;2023-03-01T16:28:47;5.00;99.90
20442;DHT22;10380;52.102;20.614;2023-03-01T16:31:18;5.00;99.90
20442;DHT22;10380;52.102;20.614;2023-03-01T16:33:46;4.90;99.90
20442;DHT22;10380;52.102;20.614;2023-03-01T16:36:17;4.90;99.90
20442;DHT22;10380;52.102;20.614;2023-03-01T16:38:45;4.80;99.90
20442;DHT22;10380;52.102;20.614;2023-03-01T16:41:17;4.70;99.90
20442;DHT22;10380;52.102;20.614;2023-03-01T16:43:44;4.70;99.90
20442;DHT22;10380;52.102;20.614;2023-03-01T16:46:25;4.60;99.90
20442;DHT22;10380;52.102;20.614;2023-03-01T16:48:53;4.50;99.90
20442;DHT22;10380;52.102;20.614;2023-03-01T16:51:20;4.40;99.90
20442;DHT22;10380;52.102;20.614;2023-03-01T16:53:48;4.40;99.90
20442;DHT22;10380;52.102;20.614;2023-03-01T16:56:16;4.30;99.90
20442;DHT22;10380;52.102;20.614;2023-03-01T16:58:43;4.30;99.90
20442;DHT22;10380;52.102;20.614;2023-03-01T17:01:14;4.20;99.90
20442;DHT22;10380;52.102;20.614;2023-03-01T17:03:42;4.20;99.90
20442;DHT22;10380;52.102;20.614;2023-03-01T17:06:12;4.10;99.90
20442;DHT22;10380;52.102;20.614;2023-03-01T17:08:39;4.10;99.90
20442;DHT22;10380;52.102;20.614;2023-03-01T17:11:12;4.10;99.90
20442;DHT22;10380;52.102;20.614;2023-03-01T17:13:39;4.00;99.90
20442;DHT22;10380;52.102;20.614;2023-03-01T17:16:10;4.00;99.90